Nordic Harrier — V7VH2 — position and weather

sailwx.info

Track history (hours):
 
Tides and Currents Weather Stations Pressure Air Temp Water Temp Dewpoint Dewpoint Depression Visibility Wind Speed Wind Dir Waves Ship Positions

Nordic Harrier

Last reported at 2017-Feb-04 22:34 UTC. Time now 2017-Feb-21 19:08 UTC.
Position N 34°28' E 033°21'.
Warning: this ship's position is 16 days out of date.

Length 274 m; draft 16.6 m.

Type: Ship. MMSI: 538004121.

Date/timePositionNaut miles runAvg speedWind from/ knotsBaromVisibWave heightAir tempDewpointWater temp
2017-Feb-04 22:34N 34°28' E 033°21'4 4.3
2017-Feb-04 21:33N 34°32' E 033°23'1 0.2
2017-Feb-04 15:22N 34°32' E 033°25'1 0.8
2017-Feb-04 14:30N 34°32' E 033°24'1 0.7
2017-Feb-04 13:33N 34°31' E 033°23'0 0.4
2017-Feb-04 12:34N 34°31' E 033°23'0 0.1
2017-Feb-04 11:15N 34°31' E 033°23'1 1.2
2017-Feb-04 10:28N 34°31' E 033°23'4 3.8
2017-Feb-04 09:31N 34°29' E 033°27'2 1.1
2017-Feb-04 07:13N 34°30' E 033°30'1 0.3
2017-Feb-04 04:29N 34°30' E 033°30'2 0.5
2017-Feb-04 00:28N 34°31' E 033°28'1 0.7
2017-Feb-03 23:32N 34°31' E 033°27'1 0.7
2017-Feb-03 22:33N 34°31' E 033°26'1 0.9
2017-Feb-03 21:34N 34°30' E 033°25'3 0.5
2017-Feb-03 16:17N 34°30' E 033°22'4 4.9
2017-Feb-03 15:33N 34°29' E 033°18'2 2.0
2017-Feb-03 14:33N 34°31' E 033°17'1 0.6
2017-Feb-03 13:33N 34°31' E 033°17'1 1.1
2017-Feb-03 12:33N 34°30' E 033°17'9 9.2
2017-Feb-03 11:33N 34°26' E 033°07'1211.7
2017-Feb-03 10:33N 34°21' E 032°54'38610.7
2017-Feb-01 22:33N 37°24' E 025°55'  
Track history (hours):
 
Tides and Currents Weather Stations Pressure Air Temp Water Temp Dewpoint Dewpoint Depression Visibility Wind Speed Wind Dir Waves Ship Positions

Nordic Harrier

Last reported at 2017-Feb-04 22:34 UTC. Time now 2017-Feb-21 19:08 UTC.
Position N 34°28' E 033°21'.
Warning: this ship's position is 16 days out of date.

Length 274 m; draft 16.6 m.

Type: Ship. MMSI: 538004121.

Date/timePositionNaut miles runAvg speedWind from/ knotsBaromVisibWave heightAir tempDewpointWater temp
2017-Feb-04 22:34N 34°28' E 033°21'4 4.3
2017-Feb-04 21:33N 34°32' E 033°23'1 0.2
2017-Feb-04 15:22N 34°32' E 033°25'1 0.8
2017-Feb-04 14:30N 34°32' E 033°24'1 0.7
2017-Feb-04 13:33N 34°31' E 033°23'0 0.4
2017-Feb-04 12:34N 34°31' E 033°23'0 0.1
2017-Feb-04 11:15N 34°31' E 033°23'1 1.2
2017-Feb-04 10:28N 34°31' E 033°23'4 3.8
2017-Feb-04 09:31N 34°29' E 033°27'2 1.1
2017-Feb-04 07:13N 34°30' E 033°30'1 0.3
2017-Feb-04 04:29N 34°30' E 033°30'2 0.5
2017-Feb-04 00:28N 34°31' E 033°28'1 0.7
2017-Feb-03 23:32N 34°31' E 033°27'1 0.7
2017-Feb-03 22:33N 34°31' E 033°26'1 0.9
2017-Feb-03 21:34N 34°30' E 033°25'3 0.5
2017-Feb-03 16:17N 34°30' E 033°22'4 4.9
2017-Feb-03 15:33N 34°29' E 033°18'2 2.0
2017-Feb-03 14:33N 34°31' E 033°17'1 0.6
2017-Feb-03 13:33N 34°31' E 033°17'1 1.1
2017-Feb-03 12:33N 34°30' E 033°17'9 9.2
2017-Feb-03 11:33N 34°26' E 033°07'1211.7
2017-Feb-03 10:33N 34°21' E 032°54'38610.7
2017-Feb-01 22:33N 37°24' E 025°55'  

Dump ship's entire track history